Airfield :
LOGIN :

Register | Disclaimer

   EN    FR    IT 

 










Legend :    VFR   Marginal VFR   IFR   Intensive IFR   Very Intensive IFR
Visi :
Ceiling :
>= 8 km
>= 3000ft
5 to 8 km
1000 to 3000 ft
1500m to 5 km
500 to 1000 ft
800 to 1500m
200 to 500 ft
< 800m
< 200 ft
Symbols :   Thunderstorms  Fog  Heavy snow  Heavy precipitations  Wind > 20 kt
SIGMETs :     Misc.  Thunderstorms  Icing  Turbulence  Mountain Waves  Volcanic Ashes






- Airport Elevation : 12 ft
- IATA code : BCN


LEBL - Barcelone

CURRENT METAR :
  • 230800Z 35004KT 300V030 9999 FEW016 FEW028TCU SCT045 16/15 Q1007 NOSIG

EXPIRED METARs :
  • 230730Z 34003KT 290V030 9999 FEW016 FEW028TCU SCT045 16/15 Q1007 NOSIG
  • 230700Z 36003KT 300V030 9999 FEW016 FEW025CB BKN030 16/16 Q1006 NOSIG
  • 230630Z 36003KT 330V030 9999 FEW016 SCT035 16/15 Q1006 NOSIG
  • 230600Z VRB02KT 9999 FEW016 SCT049 16/15 Q1006 NOSIG
  • 230530Z 31001G11KT 9999 FEW016 SCT050 16/15 Q1005 NOSIG

TAF TAF LEBL
Valid from the 23 at 06:00 until the 24 at 06:00 UTC


230500Z 2306/2406 20015KT 9999 FEW020 TX21/2312Z TN16/2306Z
TEMPO 2306/2308 36003KT
PROB40
TEMPO 2322/2401 20015G25KT TS SHRA FEW045CB
BECMG 2323/2401 34008KT



MET'MAP, your aeronautical weather chart ! - Copyright ORBIFLY December 2007 - Disclaimer

ORBIFLY MET'MAP TEAM :

Programming & Development : Alexandra Zaïnal
Concept & Development : Baudouin d'Aumeries
Co-Development & Prog : Marc-Olivier Méhu
Technical & hardware support : Manuel Goepfert

Contact : metmap@orbifly.com




SOURCES & CREDITS :

   NOAA